createdAt,value
2018-10-11T00:01:00.798Z,21.10
2018-10-11T00:03:29.062Z,20.70
2018-10-11T00:05:57.530Z,22.60
2018-10-11T00:08:25.770Z,22.13
2018-10-11T00:10:54.495Z,23.47
2018-10-11T00:13:22.790Z,23.67
2018-10-11T00:15:51.070Z,23.93
2018-10-11T00:18:19.331Z,21.13
2018-10-11T00:20:47.660Z,22.23
2018-10-11T00:23:15.890Z,25.20
2018-10-11T00:25:44.138Z,24.03
2018-10-11T00:28:12.479Z,23.90
2018-10-11T00:30:40.852Z,25.77
2018-10-11T00:33:09.098Z,23.30
2018-10-11T00:35:37.403Z,24.27
2018-10-11T00:38:05.781Z,23.07
2018-10-11T00:40:33.970Z,23.00
2018-10-11T00:43:02.240Z,23.43
2018-10-11T00:45:30.471Z,25.27
2018-10-11T00:47:58.730Z,23.03
2018-10-11T00:50:27.102Z,24.50
2018-10-11T00:52:55.346Z,23.73
2018-10-11T00:55:23.590Z,24.30
2018-10-11T00:57:51.890Z,24.53
2018-10-11T01:00:20.158Z,23.57
2018-10-11T01:02:50.179Z,25.27
2018-10-11T01:05:18.462Z,26.73
2018-10-11T01:07:46.887Z,26.33
2018-10-11T01:10:15.120Z,24.93
2018-10-11T01:12:43.418Z,25.33
2018-10-11T01:15:11.637Z,25.90
2018-10-11T01:17:40.040Z,25.43
2018-10-11T01:20:08.340Z,28.57
2018-10-11T01:22:36.652Z,24.90
2018-10-11T01:25:05.930Z,24.67
2018-10-11T01:27:34.181Z,26.03
2018-10-11T01:30:02.638Z,26.60
2018-10-11T01:32:30.891Z,27.07
2018-10-11T01:34:59.266Z,28.00
2018-10-11T01:37:27.906Z,27.37
2018-10-11T01:39:56.147Z,28.93
2018-10-11T01:42:24.677Z,27.53
2018-10-11T01:44:52.880Z,27.83
2018-10-11T01:47:21.239Z,30.60
2018-10-11T01:49:49.580Z,27.50
2018-10-11T01:52:17.870Z,26.77
2018-10-11T01:54:46.230Z,28.83
2018-10-11T01:57:14.643Z,27.00
2018-10-11T01:59:42.882Z,27.23
2018-10-11T02:02:11.182Z,28.30
2018-10-11T02:04:39.581Z,30.13
2018-10-11T02:07:07.882Z,29.27
2018-10-11T02:09:37.273Z,27.40
2018-10-11T02:12:05.587Z,28.83
2018-10-11T02:14:33.827Z,29.97
2018-10-11T02:17:02.062Z,27.77
2018-10-11T02:19:30.350Z,29.23
2018-10-11T02:21:58.633Z,28.30
2018-10-11T02:24:26.872Z,28.60
2018-10-11T02:26:55.223Z,30.53
2018-10-11T02:29:23.523Z,30.27
2018-10-11T02:31:51.788Z,28.83
2018-10-11T02:34:20.075Z,29.50
2018-10-11T02:36:48.334Z,29.67
2018-10-11T02:39:16.644Z,28.97
2018-10-11T02:41:46.042Z,30.33
2018-10-11T02:44:14.301Z,26.93
2018-10-11T02:46:42.553Z,28.57
2018-10-11T02:49:10.832Z,29.40
2018-10-11T02:51:39.090Z,30.73
2018-10-11T02:54:07.290Z,29.90
2018-10-11T02:56:35.583Z,29.63
2018-10-11T02:59:08.176Z,30.30
2018-10-11T03:01:37.595Z,31.97
2018-10-11T03:04:06.343Z,32.73
2018-10-11T03:06:36.003Z,31.37
2018-10-11T03:09:05.003Z,31.67
2018-10-11T03:11:33.312Z,30.73
2018-10-11T03:14:01.573Z,29.23
2018-10-11T03:16:29.923Z,29.77
2018-10-11T03:19:01.352Z,28.07
2018-10-11T03:21:29.681Z,31.97
2018-10-11T03:23:58.004Z,29.30
2018-10-11T03:26:26.593Z,29.80
2018-10-11T03:28:54.925Z,31.03
2018-10-11T03:31:23.251Z,32.47
2018-10-11T03:33:51.505Z,32.33
2018-10-11T03:36:20.733Z,32.67
2018-10-11T03:38:49.042Z,31.07
2018-10-11T03:41:17.333Z,32.77
2018-10-11T03:43:45.692Z,31.30
2018-10-11T03:46:14.013Z,32.20
2018-10-11T03:48:42.424Z,31.83
2018-10-11T03:51:11.234Z,30.40
2018-10-11T03:53:39.602Z,31.40
2018-10-11T03:56:07.856Z,32.53
2018-10-11T03:58:36.083Z,33.93
2018-10-11T04:01:04.403Z,32.43
2018-10-11T04:03:32.693Z,35.53
2018-10-11T04:06:01.219Z,34.50
2018-10-11T04:08:29.911Z,34.53
2018-10-11T04:10:58.625Z,34.20
2018-10-11T04:13:26.870Z,33.70
2018-10-11T04:15:55.172Z,34.17
2018-10-11T04:18:23.597Z,34.87
2018-10-11T04:20:51.883Z,35.43
2018-10-11T04:23:25.084Z,36.47
2018-10-11T04:25:53.433Z,35.23
2018-10-11T04:28:21.702Z,35.20
2018-10-11T04:30:50.128Z,36.03
2018-10-11T04:33:18.465Z,35.80
2018-10-11T04:35:46.992Z,35.23
2018-10-11T04:38:15.353Z,36.37
2018-10-11T04:40:46.373Z,36.83
2018-10-11T04:43:17.055Z,34.13
2018-10-11T04:45:47.715Z,35.93
2018-10-11T04:48:16.905Z,31.50
2018-10-11T04:50:45.452Z,36.47
2018-10-11T04:53:14.844Z,36.70
2018-10-11T04:55:44.181Z,34.37
2018-10-11T04:58:12.558Z,33.03
2018-10-11T05:00:41.398Z,34.93
2018-10-11T05:03:11.659Z,34.70
2018-10-11T05:05:40.333Z,34.77
2018-10-11T05:08:08.742Z,35.17
2018-10-11T05:10:37.082Z,35.33
2018-10-11T05:13:05.322Z,34.40
2018-10-11T05:15:35.418Z,33.83
2018-10-11T05:18:04.174Z,32.80
2018-10-11T05:20:32.582Z,35.97
2018-10-11T05:23:00.980Z,34.43
2018-10-11T05:25:29.433Z,35.70
2018-10-11T05:27:58.942Z,36.47
2018-10-11T05:30:30.382Z,35.10
2018-10-11T05:32:58.682Z,36.70
2018-10-11T05:35:27.345Z,34.27
2018-10-11T05:37:55.733Z,34.30
2018-10-11T05:40:24.184Z,36.47
2018-10-11T05:42:52.545Z,32.07
2018-10-11T05:45:21.727Z,34.90
2018-10-11T05:47:50.049Z,33.93
2018-10-11T05:50:18.421Z,31.57
2018-10-11T05:52:46.927Z,35.63
2018-10-11T05:55:15.287Z,36.10
2018-10-11T05:57:43.627Z,36.87
2018-10-11T06:00:12.278Z,54.30
2018-10-11T06:02:44.994Z,40.00
2018-10-11T06:05:13.266Z,37.20
2018-10-11T06:07:41.486Z,39.07
2018-10-11T06:10:09.880Z,37.40
2018-10-11T06:12:38.415Z,36.93
2018-10-11T06:15:06.710Z,37.43
2018-10-11T06:17:38.229Z,36.77
2018-10-11T06:20:06.588Z,38.00
2018-10-11T06:22:34.846Z,37.43
2018-10-11T06:25:03.185Z,37.97
2018-10-11T06:27:31.470Z,36.97
2018-10-11T06:30:00.698Z,36.17
2018-10-11T06:32:29.078Z,37.90
2018-10-11T06:34:58.136Z,36.87
2018-10-11T06:37:27.043Z,40.40
2018-10-11T06:39:56.452Z,41.00
2018-10-11T06:42:24.851Z,40.07
2018-10-11T06:44:53.321Z,39.17
2018-10-11T06:47:21.743Z,38.30
2018-10-11T06:49:52.264Z,40.60
2018-10-11T06:52:20.592Z,40.63
2018-10-11T06:54:48.912Z,38.97
2018-10-11T06:57:18.271Z,41.57
2018-10-11T06:59:49.805Z,38.57
2018-10-11T07:02:18.066Z,40.30
2018-10-11T07:04:47.409Z,39.77
2018-10-11T07:07:16.097Z,42.20
2018-10-11T07:09:44.557Z,40.57
2018-10-11T07:12:12.830Z,42.60
2018-10-11T07:14:41.009Z,43.80
2018-10-11T07:17:09.329Z,42.17
2018-10-11T07:19:37.510Z,43.67
2018-10-11T07:22:05.806Z,41.67
2018-10-11T07:24:35.187Z,45.00
2018-10-11T07:27:05.664Z,43.17
2018-10-11T07:29:33.856Z,41.47
2018-10-11T07:32:02.217Z,43.13
2018-10-11T07:34:30.542Z,46.17
2018-10-11T07:36:58.750Z,47.80
2018-10-11T07:39:27.036Z,46.63
2018-10-11T07:41:55.294Z,44.63
2018-10-11T07:44:23.570Z,41.90
2018-10-11T07:46:51.951Z,42.80
2018-10-11T07:49:20.205Z,44.00
2018-10-11T07:51:48.801Z,44.37
2018-10-11T07:54:17.085Z,40.87
2018-10-11T07:56:45.546Z,42.77
2018-10-11T07:59:13.805Z,45.70
2018-10-11T08:01:42.065Z,45.30
2018-10-11T08:04:10.420Z,45.70
2018-10-11T08:06:38.791Z,46.20
2018-10-11T08:09:07.363Z,45.50
2018-10-11T08:11:35.858Z,42.57
2018-10-11T08:14:03.992Z,40.77
2018-10-11T08:16:32.340Z,38.70
2018-10-11T08:19:00.707Z,39.50
2018-10-11T08:21:28.837Z,38.60
2018-10-11T08:23:57.106Z,36.67
2018-10-11T08:28:58.796Z,37.37
2018-10-11T08:31:27.099Z,38.43
2018-10-11T08:33:55.367Z,40.80
2018-10-11T08:36:23.626Z,38.27
2018-10-11T08:38:51.875Z,37.73
2018-10-11T08:41:23.628Z,36.10
2018-10-11T08:43:51.997Z,37.87
2018-10-11T08:46:20.291Z,33.77
2018-10-11T08:48:48.516Z,33.37
2018-10-11T08:51:16.840Z,34.00
2018-10-11T08:53:45.192Z,33.53
2018-10-11T08:56:13.388Z,36.40
2018-10-11T08:58:41.686Z,32.83
2018-10-11T09:01:09.926Z,33.77
2018-10-11T09:03:38.193Z,31.90
2018-10-11T09:06:06.401Z,32.40
2018-10-11T09:08:34.607Z,29.00
2018-10-11T09:11:02.904Z,29.37
2018-10-11T09:13:31.201Z,29.60
2018-10-11T09:15:59.475Z,28.90
2018-10-11T09:18:27.671Z,32.07
2018-10-11T09:20:55.975Z,36.87
2018-10-11T09:23:24.654Z,33.23
2018-10-11T09:25:52.866Z,31.43
2018-10-11T09:28:21.167Z,27.33
2018-10-11T09:30:49.531Z,26.37
2018-10-11T09:33:17.812Z,24.17
2018-10-11T09:35:49.646Z,22.13
2018-10-11T09:38:24.087Z,22.60
2018-10-11T09:40:52.314Z,21.63
2018-10-11T09:43:20.694Z,20.97
2018-10-11T09:45:48.955Z,21.10
2018-10-11T09:48:17.250Z,19.93
2018-10-11T09:50:45.457Z,19.87
2018-10-11T09:53:13.736Z,21.17
2018-10-11T09:55:42.004Z,24.07
2018-10-11T09:58:10.296Z,33.13
2018-10-11T10:00:45.984Z,29.07
2018-10-11T10:03:14.209Z,25.60
2018-10-11T10:05:42.497Z,19.77
2018-10-11T10:08:10.903Z,17.63
2018-10-11T10:10:39.246Z,17.47
2018-10-11T10:13:07.651Z,16.93
2018-10-11T10:15:35.993Z,15.47
2018-10-11T10:18:04.207Z,15.40
2018-10-11T10:20:32.497Z,14.53
2018-10-11T10:23:00.781Z,14.10
2018-10-11T10:25:29.214Z,12.70
2018-10-11T10:27:57.434Z,13.63
2018-10-11T10:30:29.971Z,12.57
2018-10-11T10:32:58.258Z,12.53
2018-10-11T10:35:26.482Z,13.63
2018-10-11T10:37:54.757Z,13.07
2018-10-11T10:40:23.122Z,12.00
2018-10-11T10:42:51.328Z,11.80
2018-10-11T10:45:19.579Z,12.17
2018-10-11T10:47:47.865Z,13.10
2018-10-11T10:50:16.092Z,12.30
2018-10-11T10:52:44.590Z,12.03
2018-10-11T10:55:12.891Z,13.23
2018-10-11T10:57:41.258Z,12.70
2018-10-11T11:00:09.640Z,12.03
2018-10-11T11:02:37.890Z,12.70
2018-10-11T11:05:06.116Z,12.37
2018-10-11T11:07:34.421Z,11.60
2018-10-11T11:10:02.607Z,14.70
2018-10-11T11:12:30.827Z,15.03
2018-10-11T11:14:59.130Z,11.83
2018-10-11T11:17:27.389Z,16.97
2018-10-11T11:19:55.725Z,14.60
2018-10-11T11:22:24.123Z,15.80
2018-10-11T11:24:52.335Z,11.87
2018-10-11T11:27:20.591Z,12.10
2018-10-11T11:29:48.846Z,9.40
2018-10-11T11:32:18.156Z,9.47
2018-10-11T11:34:46.424Z,9.33
2018-10-11T11:37:14.820Z,12.03
2018-10-11T11:39:43.055Z,9.90
2018-10-11T11:42:11.420Z,10.00
2018-10-11T11:44:39.750Z,10.13
2018-10-11T11:47:11.107Z,9.23
2018-10-11T11:49:39.554Z,8.93
2018-10-11T11:52:07.973Z,9.37
2018-10-11T11:54:36.226Z,9.47
2018-10-11T11:57:04.450Z,8.33
2018-10-11T11:59:32.820Z,8.97
2018-10-11T12:02:01.027Z,9.27
2018-10-11T12:04:29.251Z,9.23
2018-10-11T12:06:57.531Z,9.03
2018-10-11T12:09:28.971Z,9.33
2018-10-11T12:11:57.281Z,8.87
2018-10-11T12:14:26.270Z,9.10
2018-10-11T12:16:54.521Z,9.97
2018-10-11T12:19:24.169Z,9.20
2018-10-11T12:21:52.474Z,9.23
2018-10-11T12:24:22.997Z,8.93
2018-10-11T12:26:53.290Z,9.57
2018-10-11T12:29:21.553Z,9.20
2018-10-11T12:31:51.802Z,9.33
2018-10-11T12:37:00.189Z,10.43
2018-10-11T12:39:28.581Z,9.67
2018-10-11T12:42:00.970Z,10.13
2018-10-11T12:44:29.361Z,9.93
2018-10-11T12:47:00.720Z,9.90
2018-10-11T12:49:40.579Z,10.00
2018-10-11T12:52:04.644Z,10.60
2018-10-11T12:54:33.103Z,9.33
2018-10-11T12:57:01.532Z,9.57
2018-10-11T12:59:29.732Z,9.43
2018-10-11T13:01:58.334Z,9.33
2018-10-11T13:04:33.140Z,9.03
2018-10-11T13:07:01.712Z,9.20
2018-10-11T13:09:34.111Z,8.23
2018-10-11T13:12:03.446Z,9.20
2018-10-11T13:14:32.852Z,10.50
2018-10-11T13:17:01.090Z,10.37
2018-10-11T13:19:29.572Z,9.37
2018-10-11T13:22:01.691Z,10.53
2018-10-11T13:24:31.706Z,10.43
2018-10-11T13:26:58.486Z,9.63
2018-10-11T13:29:26.788Z,10.00
2018-10-11T13:31:55.057Z,11.03
2018-10-11T13:34:23.368Z,10.20
2018-10-11T13:36:51.732Z,10.27
2018-10-11T13:39:21.157Z,11.40
2018-10-11T13:41:48.348Z,11.57
2018-10-11T13:44:16.621Z,11.53
2018-10-11T13:46:44.853Z,11.40
2018-10-11T13:49:13.289Z,11.17
2018-10-11T13:51:41.607Z,11.63
2018-10-11T13:54:14.459Z,11.63
2018-10-11T13:56:43.002Z,11.50
2018-10-11T13:59:14.916Z,11.90
2018-10-11T14:01:41.066Z,13.03
2018-10-11T14:04:09.530Z,11.77
2018-10-11T14:06:37.881Z,13.57
2018-10-11T14:09:07.467Z,12.10
2018-10-11T14:11:35.910Z,12.00
2018-10-11T14:14:04.512Z,11.73
2018-10-11T14:16:32.899Z,11.90
2018-10-11T14:19:01.385Z,10.67
2018-10-11T14:21:29.793Z,10.17
2018-10-11T14:23:58.404Z,9.60
2018-10-11T14:26:26.777Z,9.60
2018-10-11T14:28:55.204Z,10.57
2018-10-11T14:31:24.376Z,9.70
2018-10-11T14:33:53.178Z,12.13
2018-10-11T14:36:22.296Z,12.27
2018-10-11T14:38:51.461Z,11.63
2018-10-11T14:41:20.204Z,13.40
2018-10-11T14:43:48.775Z,13.43
2018-10-11T14:46:17.147Z,11.67
2018-10-11T14:48:48.914Z,12.07
2018-10-11T14:51:17.589Z,9.47
2018-10-11T14:53:50.456Z,9.37
2018-10-11T14:56:16.147Z,9.53
2018-10-11T14:58:45.586Z,10.87
2018-10-11T15:01:13.906Z,8.83
2018-10-11T15:03:42.395Z,9.30
2018-10-11T15:06:11.359Z,9.53
2018-10-11T15:08:39.794Z,10.10
2018-10-11T15:11:08.926Z,9.03
2018-10-11T15:13:37.527Z,9.87
2018-10-11T15:16:06.067Z,13.50
2018-10-11T15:18:35.578Z,13.30
2018-10-11T15:21:04.087Z,14.00
2018-10-11T15:23:32.674Z,15.93
2018-10-11T15:26:01.267Z,23.97
2018-10-11T15:28:31.626Z,23.60
2018-10-11T15:31:00.154Z,17.23
2018-10-11T15:33:28.805Z,13.17
2018-10-11T15:35:57.546Z,11.13
2018-10-11T15:38:25.954Z,10.13
2018-10-11T15:40:54.787Z,30.83
2018-10-11T15:43:24.357Z,54.80
2018-10-11T15:45:52.826Z,37.13
2018-10-11T15:48:21.435Z,50.50
2018-10-11T15:50:49.875Z,20.27
2018-10-11T15:53:18.354Z,16.13
2018-10-11T15:55:46.988Z,11.87
2018-10-11T15:58:15.547Z,12.53
2018-10-11T16:00:44.169Z,11.20
2018-10-11T16:03:12.716Z,12.53
2018-10-11T16:05:41.397Z,13.70
2018-10-11T16:08:10.386Z,13.13
2018-10-11T16:10:42.435Z,13.77
2018-10-11T16:13:14.330Z,14.77
2018-10-11T16:15:47.194Z,13.87
2018-10-11T16:18:15.834Z,15.20
2018-10-11T16:20:53.391Z,15.17
2018-10-11T16:23:27.778Z,18.13
2018-10-11T16:25:57.474Z,27.43
2018-10-11T16:28:28.308Z,20.77
2018-10-11T16:30:56.954Z,14.47
2018-10-11T16:33:26.114Z,12.40
2018-10-11T16:35:55.786Z,11.70
2018-10-11T16:38:24.274Z,14.43
2018-10-11T16:40:52.746Z,18.07
2018-10-11T16:43:21.385Z,18.73
2018-10-11T16:45:52.779Z,17.50
2018-10-11T16:48:22.060Z,19.27
2018-10-11T16:50:50.610Z,15.40
2018-10-11T16:53:19.059Z,13.57
2018-10-11T16:55:47.603Z,14.37
2018-10-11T16:58:16.042Z,14.80
2018-10-11T17:00:44.514Z,14.00
2018-10-11T17:03:13.067Z,14.38
2018-10-11T17:05:41.475Z,13.10
2018-10-11T17:08:10.019Z,11.40
2018-10-11T17:10:38.555Z,10.63
2018-10-11T17:13:07.188Z,11.13
2018-10-11T17:15:35.626Z,10.20
2018-10-11T17:18:04.127Z,11.30
2018-10-11T17:20:33.154Z,11.67
2018-10-11T17:23:01.672Z,12.17
2018-10-11T17:25:29.987Z,13.83
2018-10-11T17:27:58.760Z,15.43
2018-10-11T17:30:27.238Z,13.90
2018-10-11T17:32:55.631Z,14.03
2018-10-11T17:35:24.095Z,14.33
2018-10-11T17:37:52.537Z,13.50
2018-10-11T17:40:21.110Z,14.03
2018-10-11T17:42:50.996Z,13.73
2018-10-11T17:45:19.981Z,14.03
2018-10-11T17:47:49.410Z,14.07
2018-10-11T17:50:17.838Z,15.67
2018-10-11T17:52:46.644Z,15.47
2018-10-11T17:55:17.926Z,15.87
2018-10-11T17:57:49.595Z,18.77
2018-10-11T18:00:17.922Z,19.63
2018-10-11T18:02:46.131Z,20.47
2018-10-11T18:05:15.330Z,19.97
2018-10-11T18:07:43.579Z,18.80
2018-10-11T18:10:11.934Z,19.20
2018-10-11T18:12:40.403Z,18.53
2018-10-11T18:15:12.200Z,19.33
2018-10-11T18:17:41.584Z,20.03
2018-10-11T18:20:10.993Z,21.20
2018-10-11T18:22:39.300Z,19.33
2018-10-11T18:25:07.871Z,19.93
2018-10-11T18:27:36.139Z,20.40
2018-10-11T18:30:04.502Z,18.77
2018-10-11T18:32:32.812Z,18.53
2018-10-11T18:35:01.413Z,23.83
2018-10-11T18:37:29.891Z,19.50
2018-10-11T18:39:59.142Z,19.17
2018-10-11T18:42:27.830Z,19.63
2018-10-11T18:44:59.210Z,17.20
2018-10-11T18:47:27.590Z,17.90
2018-10-11T18:49:56.105Z,16.23
2018-10-11T18:52:24.419Z,18.00
2018-10-11T18:54:53.387Z,16.90
2018-10-11T18:57:21.976Z,16.67
2018-10-11T18:59:51.437Z,18.67
2018-10-11T19:02:21.147Z,19.60
2018-10-11T19:04:49.669Z,18.77
2018-10-11T19:07:18.579Z,18.00
2018-10-11T19:09:47.273Z,19.90
2018-10-11T19:12:20.257Z,19.03
2018-10-11T19:14:49.230Z,18.90
2018-10-11T19:17:18.271Z,19.50
2018-10-11T19:19:47.818Z,18.03
2018-10-11T19:22:17.035Z,19.27
2018-10-11T19:24:45.654Z,19.80
2018-10-11T19:27:14.403Z,18.37
2018-10-11T19:29:46.623Z,18.20
2018-10-11T19:32:21.505Z,19.67
2018-10-11T19:34:50.014Z,21.23
2018-10-11T19:37:18.571Z,19.27
2018-10-11T19:39:48.969Z,18.53
2018-10-11T19:42:18.423Z,18.30
2018-10-11T19:44:47.326Z,19.97
2018-10-11T19:47:15.741Z,20.10
2018-10-11T19:49:45.281Z,18.33
2018-10-11T19:52:14.169Z,18.53
2018-10-11T19:54:42.862Z,18.33
2018-10-11T19:57:18.481Z,18.63
2018-10-11T19:59:47.501Z,19.30
2018-10-11T20:02:17.550Z,18.97
2018-10-11T20:04:49.439Z,18.90
2018-10-11T20:07:17.904Z,17.70
2018-10-11T20:09:46.148Z,19.17
2018-10-11T20:12:14.554Z,19.37
2018-10-11T20:14:43.190Z,17.80
2018-10-11T20:17:11.538Z,18.77
2018-10-11T20:19:39.979Z,19.50
2018-10-11T20:22:09.138Z,18.83
2018-10-11T20:24:37.562Z,19.60
2018-10-11T20:27:05.981Z,19.77
2018-10-11T20:29:34.413Z,19.90
2018-10-11T20:32:06.116Z,18.53
2018-10-11T20:34:34.408Z,19.67
2018-10-11T20:37:02.750Z,19.53
2018-10-11T20:39:31.169Z,19.47
2018-10-11T20:41:59.442Z,19.33
2018-10-11T20:44:27.815Z,18.50
2018-10-11T20:46:56.329Z,20.27
2018-10-11T20:49:24.790Z,18.30
2018-10-11T20:51:53.049Z,20.37
2018-10-11T20:54:21.473Z,19.47
2018-10-11T20:56:49.837Z,19.93
2018-10-11T20:59:18.088Z,21.23
2018-10-11T21:01:46.353Z,20.27
2018-10-11T21:04:15.689Z,20.37
2018-10-11T21:06:44.309Z,20.80
2018-10-11T21:09:13.546Z,20.40
2018-10-11T21:11:41.897Z,20.60
2018-10-11T21:14:10.324Z,22.43
2018-10-11T21:16:38.594Z,22.47
2018-10-11T21:19:07.082Z,22.17
2018-10-11T21:21:35.249Z,22.10
2018-10-11T21:24:03.812Z,25.37
2018-10-11T21:26:32.005Z,24.23
2018-10-11T21:29:00.503Z,23.77
2018-10-11T21:31:29.493Z,24.80
2018-10-11T21:33:57.741Z,24.23
2018-10-11T21:36:25.906Z,23.70
2018-10-11T21:38:54.195Z,24.27
2018-10-11T21:41:22.379Z,25.53
2018-10-11T21:43:50.559Z,24.10
2018-10-11T21:46:18.934Z,24.80
2018-10-11T21:48:47.090Z,23.70
2018-10-11T21:51:15.298Z,25.97
2018-10-11T21:53:44.121Z,24.63
2018-10-11T21:56:12.290Z,25.97
2018-10-11T21:58:40.512Z,25.23
2018-10-11T22:01:13.064Z,26.47
2018-10-11T22:03:41.385Z,28.87
2018-10-11T22:06:09.649Z,27.50
2018-10-11T22:08:44.866Z,28.67
2018-10-11T22:11:13.074Z,28.53
2018-10-11T22:13:41.615Z,30.20
2018-10-11T22:16:10.384Z,28.87
2018-10-11T22:18:39.283Z,28.63
2018-10-11T22:21:08.103Z,28.73
2018-10-11T22:23:36.360Z,29.37
2018-10-11T22:26:04.657Z,29.43
2018-10-11T22:28:36.049Z,28.40
2018-10-11T22:31:04.263Z,28.77
2018-10-11T22:33:32.443Z,30.53
2018-10-11T22:36:00.633Z,31.43
2018-10-11T22:38:28.858Z,30.20
2018-10-11T22:40:58.151Z,31.93
2018-10-11T22:43:26.380Z,31.03
2018-10-11T22:45:54.577Z,30.73
2018-10-11T22:48:22.759Z,33.17
2018-10-11T22:50:51.058Z,31.83
2018-10-11T22:53:19.182Z,32.70
2018-10-11T22:55:47.398Z,34.17
2018-10-11T22:58:18.772Z,32.83
2018-10-11T23:00:46.947Z,34.13
2018-10-11T23:03:18.236Z,33.17
2018-10-11T23:05:46.417Z,32.67
2018-10-11T23:08:14.610Z,36.00
2018-10-11T23:10:42.860Z,34.67
2018-10-11T23:13:11.051Z,32.77
2018-10-11T23:15:39.272Z,35.93
2018-10-11T23:18:10.614Z,35.57
2018-10-11T23:20:38.789Z,35.90
2018-10-11T23:23:07.030Z,35.87
2018-10-11T23:25:35.335Z,35.10
2018-10-11T23:28:03.498Z,37.03
2018-10-11T23:30:32.429Z,35.83
2018-10-11T23:33:00.661Z,35.03
2018-10-11T23:35:28.819Z,36.30
2018-10-11T23:37:57.043Z,37.93
2018-10-11T23:40:25.272Z,36.90
2018-10-11T23:42:53.507Z,36.67
2018-10-11T23:45:21.719Z,36.87
2018-10-11T23:47:49.906Z,37.20
2018-10-11T23:50:18.111Z,34.90
2018-10-11T23:52:46.352Z,37.80
2018-10-11T23:55:14.491Z,39.43
2018-10-11T23:57:42.720Z,37.77
